Latest Weather Observations for West Wyalong

IDN60801

Issued at 11:35 pm EST Friday 1 August 2014 (issued every 30 minutes, with the page automatically refreshed every 10 minutes)

About weather observations | Map of weather stations | Latest weather observations for NSW | Other Formats
Station Details ID: 050017 Name: WEST WYALONG AIRPORT AWS Lat: -33.94 Lon: 147.20 Height: 257.0 m
Data from the previous 72 hours. | See also: Recent months for locations in New South Wales
Date/Time
EST
Temp
°C
App
Temp
°C
Dew
Point
Rel
Hum
%
Delta-T
°C
Wind Press
QNH
hPa
Press
MSL
hPa
Rain
since 9 am
mm
Dir
 
Spd
km/h
Gust
km/h
Spd
kts
Gust
kts
01/11:30pm 3.9 -3.2 1.3 83 1.0 WSW 28 35 15 19 1022.0 - 0.2
01/11:00pm 4.2 -2.9 1.4 82 1.1 WSW 28 37 15 20 1021.8 - 0.2
01/10:30pm 4.6 -2.9 1.3 79 1.3 WSW 30 41 16 22 1021.5 - 0.2
01/10:00pm 4.6 -2.1 1.3 79 1.3 WSW 26 35 14 19 1020.8 - 0.2
01/09:30pm 5.2 -2.3 1.5 77 1.5 WSW 30 41 16 22 1020.5 - 0.2
01/09:00pm 5.7 -1.7 1.8 76 1.6 WSW 30 41 16 22 1020.0 1020.3 0.2
01/08:30pm 6.2 -0.7 2.3 76 1.6 WSW 28 39 15 21 1019.5 - 0.2
01/08:00pm 6.4 -0.9 2.3 75 1.7 WSW 30 39 16 21 1018.8 - 0.2
01/07:30pm 6.6 -0.3 2.3 74 1.8 WSW 28 41 15 22 1018.3 - 0.2
01/07:00pm 7.0 0.4 2.1 71 2.0 W 26 44 14 24 1017.7 - 0.2
01/06:30pm 7.1 -0.3 2.0 70 2.1 WSW 30 46 16 25 1016.8 - 0.2
01/06:00pm 7.3 -0.5 1.6 67 2.3 W 32 41 17 22 1016.2 1016.4 0.2
01/05:30pm 7.5 0.5 2.2 69 2.2 W 28 35 15 19 1015.7 - 0.2
01/05:22pm 7.4 -0.5 2.1 69 2.2 W 33 52 18 28 1015.4 - 0.2
01/05:00pm 8.7 1.6 1.6 61 3.0 WSW 28 37 15 20 1014.8 - 0.2
01/04:30pm 8.6 1.1 3.4 70 2.3 WSW 32 43 17 23 1014.1 - 0.2
01/04:00pm 8.5 1.0 1.4 61 2.9 WNW 30 43 16 23 1013.7 - 0.0
01/03:30pm 10.9 2.3 0.3 48 4.4 W 35 50 19 27 1013.2 - 0.0
01/03:00pm 10.3 0.8 1.7 55 3.7 W 41 59 22 32 1012.9 1013.1 0.0
01/02:43pm 10.9 2.2 -0.2 46 4.6 W 35 57 19 31 1012.4 - 0.0
01/02:30pm 12.3 3.8 1.0 46 4.8 W 35 52 19 28 1012.2 - 0.0
01/02:03pm 11.1 3.3 -1.0 43 4.9 WNW 30 48 16 26 1011.9 - 0.0
01/02:00pm 11.7 4.5 0.5 46 4.7 WNW 28 41 15 22 1011.9 - 0.0
01/01:30pm 10.0 2.5 0.9 53 3.8 W 30 39 16 21 1012.1 - 0.0
01/01:20pm 10.7 2.3 1.8 54 3.8 W 35 54 19 29 1012.2 - 0.0
01/01:00pm 10.1 1.8 -0.4 48 4.2 W 33 50 18 27 1012.3 - 0.0
01/12:32pm 10.3 2.3 0.1 49 4.2 W 32 56 17 30 1012.5 - 0.0
01/12:30pm 10.7 3.1 0.4 49 4.3 W 30 41 16 22 1012.5 - 0.0
01/12:00pm 10.0 3.2 1.1 54 3.7 W 26 37 14 20 1012.7 1012.9 0.0
01/11:30am 11.2 3.9 2.5 55 3.8 W 30 41 16 22 1012.9 - 0.0
01/11:00am 9.3 2.2 1.2 57 3.4 W 28 39 15 21 1012.9 - 0.0
01/10:30am 10.1 4.0 2.7 60 3.2 W 24 35 13 19 1012.9 - 0.0
01/10:00am 9.2 2.7 2.5 63 2.9 WNW 26 35 14 19 1012.9 - 0.0
01/09:30am 8.6 1.9 3.4 70 2.3 W 28 39 15 21 1012.9 - 0.0
01/09:00am 7.9 1.2 3.4 73 1.9 W 28 39 15 21 1012.7 1012.9 0.0
01/08:30am 7.4 1.8 3.6 77 1.6 W 22 30 12 16 1012.5 - 0.0
01/08:00am 6.6 1.6 3.4 80 1.4 W 19 26 10 14 1012.2 - 0.0
01/07:30am 5.7 1.0 2.9 82 1.2 W 17 20 9 11 1012.0 - 0.0
01/07:00am 5.8 1.0 2.6 80 1.3 W 17 22 9 12 1011.5 - 0.0
01/06:30am 6.4 1.0 2.7 77 1.6 W 20 24 11 13 1010.9 - 0.0
01/06:00am 7.2 2.9 3.4 77 1.6 W 15 24 8 13 1010.3 1010.5 0.0
01/05:30am 7.6 3.1 4.2 79 1.5 W 17 20 9 11 1010.0 - 0.0
01/05:00am 7.6 3.9 4.6 81 1.3 W 13 17 7 9 1009.6 - 0.0
01/04:30am 7.4 4.7 5.5 88 0.9 WNW 9 13 5 7 1009.3 - 0.0
01/04:00am 7.7 4.0 6.2 90 0.7 WSW 15 24 8 13 1009.3 - 0.0
01/03:30am 8.3 2.8 5.8 84 1.1 WSW 24 33 13 18 1009.5 - 0.0
01/03:00am 7.9 3.3 5.4 84 1.1 WSW 19 22 10 12 1009.2 1009.3 0.0
01/02:30am 7.8 3.1 5.3 84 1.1 WSW 19 26 10 14 1008.9 - 0.0
01/02:00am 8.0 3.3 5.1 82 1.3 WSW 19 22 10 12 1008.7 - 0.0
01/01:30am 8.4 3.5 5.2 80 1.5 WSW 20 28 11 15 1008.7 - 0.0
01/01:00am 8.9 4.0 5.1 77 1.7 WSW 20 26 11 14 1008.6 - 0.0
01/12:30am 9.7 4.4 5.1 73 2.1 WSW 22 28 12 15 1008.3 - 0.0
01/12:00am 10.6 3.7 4.7 67 2.7 WSW 30 46 16 25 1008.0 1008.2 0.0
 
Date/Time
EST
Temp
°C
App
Temp
°C
Dew
Point
Rel
Hum
%
Delta-T
°C
Wind Press
QNH
hPa
Press
MSL
hPa
Rain
since 9 am
mm
Dir
 
Spd
km/h
Gust
km/h
Spd
kts
Gust
kts
31/11:30pm 11.4 3.8 0.5 47 4.6 W 30 48 16 26 1007.4 - 0.0
31/11:00pm 11.0 5.8 0.4 48 4.4 NNW 17 20 9 11 1006.1 - 0.0
31/10:30pm 10.7 6.3 0.4 49 4.3 NNW 13 20 7 11 1006.4 - 0.0
31/10:00pm 11.2 6.8 0.6 48 4.4 NNW 13 19 7 10 1006.7 - 0.0
31/09:30pm 11.5 7.5 0.6 47 4.6 N 11 17 6 9 1006.8 - 0.0
31/09:00pm 11.9 7.5 0.4 45 4.8 N 13 15 7 8 1006.9 1007.3 0.0
31/08:30pm 12.0 8.3 0.1 44 5.0 N 9 13 5 7 1007.2 - 0.0
31/08:00pm 12.9 8.5 0.3 42 5.3 NNW 13 17 7 9 1007.1 - 0.0
31/07:30pm 13.7 9.3 0.4 40 5.7 N 13 20 7 11 1006.8 - 0.0
31/07:00pm 13.8 9.5 0.8 41 5.6 NNW 13 19 7 10 1006.9 - 0.0
31/06:30pm 14.8 10.1 0.6 38 6.2 NNW 15 20 8 11 1006.6 - 0.0
31/06:00pm 16.4 11.2 0.1 33 7.1 NNW 17 24 9 13 1006.2 1006.5 0.0
31/05:30pm 17.4 12.2 0.1 31 7.6 NNW 17 22 9 12 1006.4 - 0.0
31/05:00pm 18.8 13.3 0.9 30 8.1 NNW 19 24 10 13 1006.6 - 0.0
31/04:30pm 20.1 14.1 1.0 28 8.7 NNW 22 32 12 17 1006.9 - 0.0
31/04:00pm 20.9 13.6 0.2 25 9.4 NW 28 43 15 23 1007.3 - 0.0
31/03:31pm 20.9 13.2 0.2 25 9.4 NNW 30 50 16 27 1007.5 - 0.0
31/03:30pm 21.0 13.4 0.8 26 9.3 NNW 30 44 16 24 1007.6 - 0.0
31/03:02pm 21.2 13.5 -0.1 24 9.6 NW 30 48 16 26 1007.9 - 0.0
31/03:00pm 21.3 13.8 1.0 26 9.4 NW 30 39 16 21 1007.9 1008.3 0.0
31/02:30pm 21.4 13.9 1.1 26 9.4 NW 30 50 16 27 1008.4 - 0.0
31/02:00pm 21.3 13.6 2.1 28 9.1 NW 32 52 17 28 1008.9 - 0.0
31/01:37pm 21.0 13.1 1.3 27 9.1 NW 32 50 17 27 1009.6 - 0.0
31/01:30pm 21.1 14.1 1.9 28 9.0 NW 28 43 15 23 1009.7 - 0.0
31/01:04pm 20.7 13.7 2.0 29 8.8 NW 28 48 15 26 1010.2 - 0.0
31/01:00pm 21.0 14.9 2.8 30 8.7 NW 24 48 13 26 1010.3 - 0.0
31/12:30pm 20.1 13.4 3.8 34 7.9 NNW 28 46 15 25 1010.9 - 0.0
31/12:29pm 19.9 13.1 3.2 33 8.0 NNW 28 46 15 25 1010.9 - 0.0
31/12:00pm 19.4 13.1 3.6 35 7.6 NW 26 37 14 20 1011.7 1012.1 0.0
31/11:30am 18.3 13.0 4.8 41 6.6 NNW 22 33 12 18 1012.6 - 0.0
31/11:00am 16.9 11.2 4.9 45 5.8 NNW 24 33 13 18 1013.4 - 0.0
31/10:30am 15.7 10.7 4.4 47 5.3 NNW 20 32 11 17 1013.9 - 0.0
31/10:00am 14.5 9.7 4.8 52 4.6 NNW 19 28 10 15 1014.5 - 0.0
31/09:30am 12.6 7.8 4.8 59 3.6 NNW 19 24 10 13 1014.5 - 0.0
31/09:00am 11.0 6.6 4.7 65 2.9 NNW 17 26 9 14 1014.7 1015.1 0.0
31/08:30am 9.1 5.0 4.1 71 2.2 NNW 15 20 8 11 1014.6 - 0.0
31/08:00am 7.4 2.7 3.1 74 1.8 NNW 17 22 9 12 1014.9 - 0.0
31/07:30am 6.2 1.9 3.0 80 1.4 N 15 17 8 9 1015.1 - 0.0
31/07:00am 5.9 1.6 3.1 82 1.2 N 15 20 8 11 1015.2 - 0.0
31/06:30am 6.1 2.2 3.3 82 1.2 NNW 13 17 7 9 1015.1 - 0.0
31/06:00am 6.1 2.2 3.3 82 1.2 NNW 13 17 7 9 1015.2 1015.6 0.0
31/05:30am 6.3 2.8 3.6 83 1.2 NNW 11 15 6 8 1015.3 - 0.0
31/05:00am 6.5 2.7 4.0 84 1.1 N 13 17 7 9 1015.2 - 0.0
31/04:30am 7.3 3.5 4.1 80 1.4 NNW 13 17 7 9 1015.3 - 0.0
31/04:00am 7.5 3.4 4.5 81 1.3 NNW 15 19 8 10 1015.6 - 0.0
31/03:30am 7.8 3.4 4.7 81 1.4 NNW 17 19 9 10 1015.8 - 0.0
31/03:00am 7.6 3.6 4.9 83 1.2 NNW 15 19 8 10 1016.1 1016.5 0.0
31/02:30am 8.1 3.7 5.0 81 1.4 NNW 17 19 9 10 1016.3 - 0.0
31/02:00am 8.2 3.9 5.3 82 1.3 NNW 17 20 9 11 1016.4 - 0.0
31/01:30am 8.5 4.7 5.6 82 1.3 NNW 15 19 8 10 1016.7 - 0.0
31/01:00am 8.6 5.2 5.7 82 1.3 N 13 17 7 9 1016.8 - 0.0
31/12:30am 8.6 5.2 5.9 83 1.2 N 13 15 7 8 1017.3 - 0.0
31/12:00am 8.9 5.5 6.0 82 1.3 NNW 13 15 7 8 1017.4 1017.8 0.0
 
Date/Time
EST
Temp
°C
App
Temp
°C
Dew
Point
Rel
Hum
%
Delta-T
°C
Wind Press
QNH
hPa
Press
MSL
hPa
Rain
since 9 am
mm
Dir
 
Spd
km/h
Gust
km/h
Spd
kts
Gust
kts
30/11:30pm 8.7 5.4 6.3 85 1.1 NNW 13 15 7 8 1017.6 - 0.0
30/11:00pm 6.1 3.1 4.1 87 0.9 N 9 11 5 6 1017.7 - 0.0
30/10:30pm 7.4 4.5 4.7 83 1.2 NNW 9 9 5 5 1017.9 - 0.0
30/10:00pm 9.0 6.1 6.3 83 1.3 N 11 11 6 6 1017.9 - 0.0
30/09:30pm 8.9 6.5 5.3 78 1.6 N 7 9 4 5 1017.9 - 0.0
30/09:00pm 12.2 9.6 6.0 66 2.9 NW 9 11 5 6 1017.9 1018.3 0.0
30/08:30pm 12.4 9.4 6.2 66 3.0 NW 11 13 6 7 1018.1 - 0.0
30/08:00pm 12.7 9.8 6.5 66 3.0 NW 11 13 6 7 1018.2 - 0.0
30/07:30pm 12.8 10.0 6.8 67 2.9 NW 11 13 6 7 1018.3 - 0.0
30/07:00pm 12.4 10.0 6.9 69 2.7 WNW 9 11 5 6 1018.2 - 0.0
30/06:30pm 13.5 11.1 6.8 64 3.3 WNW 9 11 5 6 1018.0 - 0.0
30/06:00pm 14.5 12.1 7.1 61 3.7 WNW 9 13 5 7 1017.9 1018.3 0.0
30/05:30pm 15.7 13.0 7.2 57 4.3 WNW 11 13 6 7 1017.8 - 0.0
30/05:00pm 17.4 14.3 7.2 51 5.2 WNW 13 20 7 11 1017.8 - 0.0
30/04:30pm 18.1 14.2 6.9 48 5.7 WNW 17 26 9 14 1017.8 - 0.0
30/04:00pm 18.8 15.2 8.2 50 5.5 W 17 22 9 12 1017.6 - 0.0
30/03:30pm 17.9 13.2 7.6 51 5.3 W 22 28 12 15 1018.0 - 0.0
30/03:00pm 18.6 16.1 9.7 56 4.8 NW 13 20 7 11 1017.9 1018.3 0.0
30/02:30pm 18.9 15.5 9.1 53 5.2 WNW 17 26 9 14 1018.1 - 0.0
30/02:00pm 17.5 12.9 8.1 54 4.9 WNW 22 33 12 18 1018.3 - 0.0
30/01:30pm 17.7 12.7 8.0 53 5.0 WNW 24 35 13 19 1018.6 - 0.0
30/01:00pm 18.7 14.8 8.7 52 5.3 W 19 28 10 15 1019.0 - 0.0
30/12:30pm 17.7 13.1 8.3 54 4.9 W 22 30 12 16 1019.4 - 0.0
30/12:00pm 17.8 12.9 8.6 55 4.8 W 24 35 13 19 1020.1 1020.6 0.0
30/11:30am 16.7 12.2 8.7 59 4.2 W 22 32 12 17 1020.5 - 0.0
30/11:00am 16.9 12.2 9.3 61 4.0 W 24 33 13 18 1020.8 - 0.0
30/10:30am 16.6 12.7 8.8 60 4.1 WNW 19 30 10 16 1020.8 - 0.0
30/10:00am 15.5 11.3 8.3 62 3.7 W 20 28 11 15 1020.9 - 0.0
30/09:30am 14.8 11.0 7.6 62 3.6 W 17 24 9 13 1020.8 - 0.0
30/09:00am 12.6 10.3 7.3 70 2.6 NW 9 13 5 7 1020.6 1021.1 0.0
30/08:30am 11.1 7.8 6.5 73 2.2 NNW 13 17 7 9 1020.4 - 0.0
30/08:00am 10.0 7.4 6.0 76 1.9 NNW 9 13 5 7 1020.3 - 0.0
30/07:30am 10.2 7.1 5.4 72 2.2 NNW 11 13 6 7 1020.2 - 0.0
30/07:00am 10.6 7.0 5.2 69 2.5 NW 13 17 7 9 1020.0 - 0.0
30/06:30am 10.8 6.8 4.9 67 2.7 NW 15 22 8 12 1019.7 - 0.0
30/06:00am 10.9 6.9 5.0 67 2.7 WNW 15 19 8 10 1019.4 1019.8 0.0
30/05:30am 10.5 6.5 5.1 69 2.5 NW 15 19 8 10 1019.1 - 0.0
30/05:00am 9.0 5.7 4.4 73 2.1 NW 11 15 6 8 1018.9 - 0.0
30/04:30am 9.2 6.4 5.0 75 1.9 NNW 9 15 5 8 1018.9 - 0.0
30/04:00am 7.0 5.2 3.6 79 1.5 WNW 2 6 1 3 1018.8 - 0.0
30/03:30am 8.3 5.3 4.1 75 1.9 WNW 9 11 5 6 1018.8 - 0.0
30/03:00am 8.7 5.8 4.5 75 1.9 NW 9 13 5 7 1018.8 1019.2 0.0
30/02:30am 9.2 6.9 4.6 73 2.1 NW 6 9 3 5 1018.9 - 0.0
30/02:00am 10.1 7.7 5.3 72 2.2 WNW 7 9 4 5 1019.0 - 0.0
30/01:30am 10.1 7.2 4.5 68 2.5 W 9 11 5 6 1018.9 - 0.0
30/01:00am 10.4 7.1 4.8 68 2.6 W 11 13 6 7 1019.0 - 0.0
30/12:30am 8.8 5.3 3.6 70 2.3 W 11 15 6 8 1018.8 - 0.0
30/12:00am 9.1 5.6 3.3 67 2.5 W 11 13 6 7 1018.9 1019.3 0.0

Other Formats:

Comma delimited format used in spreadsheet applications
http://www.bom.gov.au/fwo/IDN60801/IDN60801.95709.axf

JavaScript Object Notation format (JSON) in row-major order
http://www.bom.gov.au/fwo/IDN60801/IDN60801.95709.json